Time;durP1;ratioP1;P1;durP2;ratioP2;P2;SDS_P1;SDS_P2;PMS_P1;PMS_P2;Temp;Humidity;BMP_temperature;BMP_pressure;BME280_temperature;BME280_humidity;BME280_pressure;Samples;Min_cycle;Max_cycle;Signal;HPM_P1;HPM_P2
2023/05/15 00:00:14;;;;;;;3.50;2.10;;;;;;;;;;5064897;28;20052;-67
2023/05/15 00:03:01;;;;;;;5.15;2.10;;;;;;;;;;5066344;28;20052;-67
2023/05/15 00:05:26;;;;;;;5.15;2.17;;;;;;;;;;5065553;28;20495;-69
2023/05/15 00:07:54;;;;;;;3.90;2.00;;;;;;;;;;5067806;28;20067;-67
2023/05/15 00:10:20;;;;;;;2.88;1.90;;;;;;;;;;5065529;28;20074;-67
2023/05/15 00:12:46;;;;;;;4.90;1.90;;;;;;;;;;5067186;28;20056;-67
2023/05/15 00:15:13;;;;;;;4.18;2.20;;;;;;;;;;5061367;28;20481;-67
2023/05/15 00:17:39;;;;;;;5.57;2.38;;;;;;;;;;5065748;28;20119;-67
2023/05/15 00:20:08;;;;;;;6.45;2.53;;;;;;;;;;5064589;28;20424;-68
2023/05/15 00:22:34;;;;;;;3.45;2.60;;;;;;;;;;5045433;28;20064;-67
2023/05/15 00:25:00;;;;;;;3.60;2.20;;;;;;;;;;5064149;28;20059;-66
2023/05/15 00:27:27;;;;;;;4.85;2.30;;;;;;;;;;5067771;28;20943;-67
2023/05/15 00:29:52;;;;;;;3.53;2.55;;;;;;;;;;5064730;28;20070;-66
2023/05/15 00:32:19;;;;;;;3.72;2.35;;;;;;;;;;5064919;28;20120;-67
2023/05/15 00:34:47;;;;;;;6.70;2.80;;;;;;;;;;5057490;28;20050;-67
2023/05/15 00:37:13;;;;;;;2.85;2.42;;;;;;;;;;5066310;28;20083;-67
2023/05/15 00:39:39;;;;;;;4.90;2.72;;;;;;;;;;5065658;28;20185;-68
2023/05/15 00:42:08;;;;;;;5.15;2.75;;;;;;;;;;5048538;28;20056;-65
2023/05/15 00:44:35;;;;;;;3.25;2.55;;;;;;;;;;5063391;28;20055;-67
2023/05/15 00:47:02;;;;;;;4.72;2.58;;;;;;;;;;5065208;28;20083;-66
2023/05/15 00:49:29;;;;;;;5.20;2.50;;;;;;;;;;5062374;28;20267;-67
2023/05/15 00:52:00;;;;;;;5.10;2.53;;;;;;;;;;5049822;28;20084;-66
2023/05/15 00:54:29;;;;;;;5.57;2.60;;;;;;;;;;5066807;28;20052;-67
2023/05/15 00:56:58;;;;;;;8.25;3.08;;;;;;;;;;5065189;28;20048;-66
2023/05/15 00:59:34;;;;;;;3.63;2.63;;;;;;;;;;5064067;28;20610;-67
2023/05/15 01:02:00;;;;;;;6.82;2.83;;;;;;;;;;5058721;28;20052;-67
2023/05/15 01:04:26;;;;;;;3.13;2.28;;;;;;;;;;5061938;28;20593;-66
2023/05/15 01:06:52;;;;;;;8.10;2.70;;;;;;;;;;5028662;28;20146;-67
2023/05/15 01:09:24;;;;;;;6.15;2.47;;;;;;;;;;5027080;28;20068;-66
2023/05/15 01:11:53;;;;;;;3.60;2.30;;;;;;;;;;5025735;28;20072;-67
2023/05/15 01:14:21;;;;;;;6.10;2.90;;;;;;;;;;5020843;28;20041;-67
2023/05/15 01:16:47;;;;;;;4.45;2.50;;;;;;;;;;5023082;28;20053;-65
2023/05/15 01:19:13;;;;;;;4.53;2.58;;;;;;;;;;5039072;28;20052;-68
2023/05/15 01:21:45;;;;;;;5.05;2.63;;;;;;;;;;5024815;28;20045;-66
2023/05/15 01:24:31;;;;;;;4.80;2.60;;;;;;;;;;5022896;28;20064;-66
2023/05/15 01:27:19;;;;;;;4.60;2.42;;;;;;;;;;5023314;28;20048;-65
2023/05/15 01:29:54;;;;;;;4.72;2.45;;;;;;;;;;5022785;28;20053;-67
2023/05/15 01:32:31;;;;;;;4.72;2.60;;;;;;;;;;5023068;28;20140;-64
2023/05/15 01:35:10;;;;;;;;;;;;;;;;;;5027013;28;20404;-64
2023/05/15 01:37:41;;;;;;;3.65;2.60;;;;;;;;;;5023737;28;20380;-66
2023/05/15 01:40:09;;;;;;;3.55;2.67;;;;;;;;;;5025831;28;20432;-64
2023/05/15 01:42:43;;;;;;;5.68;2.53;;;;;;;;;;5028369;28;20053;-67
2023/05/15 01:45:10;;;;;;;4.22;2.40;;;;;;;;;;5026230;28;20045;-65
2023/05/15 01:47:43;;;;;;;5.00;2.53;;;;;;;;;;5029334;28;20061;-65
2023/05/15 01:50:12;;;;;;;5.28;2.45;;;;;;;;;;5028584;28;20456;-67
2023/05/15 01:52:49;;;;;;;3.47;2.30;;;;;;;;;;5031316;28;20057;-64
2023/05/15 01:55:17;;;;;;;3.97;2.40;;;;;;;;;;5024679;28;20053;-66
2023/05/15 01:57:45;;;;;;;5.10;2.65;;;;;;;;;;5027464;28;20497;-66
2023/05/15 02:00:12;;;;;;;5.57;2.78;;;;;;;;;;5024701;28;20489;-65
2023/05/15 02:02:42;;;;;;;4.80;2.70;;;;;;;;;;5027652;28;20059;-65
2023/05/15 02:05:11;;;;;;;4.18;2.72;;;;;;;;;;5028588;28;20107;-66
2023/05/15 02:07:39;;;;;;;6.25;2.67;;;;;;;;;;5031973;28;20091;-65
2023/05/15 02:10:06;;;;;;;6.90;2.40;;;;;;;;;;5035040;28;20154;-66
2023/05/15 02:12:34;;;;;;;3.65;2.28;;;;;;;;;;5029604;28;20137;-67
2023/05/15 02:15:02;;;;;;;6.05;2.13;;;;;;;;;;5027370;28;20073;-65
2023/05/15 02:17:29;;;;;;;4.18;2.25;;;;;;;;;;5030620;28;20041;-68
2023/05/15 02:19:54;;;;;;;6.10;2.47;;;;;;;;;;5027682;28;20493;-67
2023/05/15 02:22:20;;;;;;;4.13;2.80;;;;;;;;;;5029956;28;20103;-65
2023/05/15 02:24:46;;;;;;;6.35;2.65;;;;;;;;;;5026922;28;20053;-65
2023/05/15 02:27:25;;;;;;;4.63;2.38;;;;;;;;;;5028123;28;20554;-66
2023/05/15 02:30:10;;;;;;;4.07;2.60;;;;;;;;;;5024685;28;20844;-67
2023/05/15 02:32:55;;;;;;;5.00;2.58;;;;;;;;;;5028712;28;20057;-65
2023/05/15 02:35:32;;;;;;;3.60;2.38;;;;;;;;;;5038571;28;20566;-65
2023/05/15 02:38:02;;;;;;;5.13;2.55;;;;;;;;;;5029731;28;20144;-66
2023/05/15 02:40:29;;;;;;;6.07;2.70;;;;;;;;;;5029172;28;20053;-66
2023/05/15 02:42:56;;;;;;;4.07;2.45;;;;;;;;;;5026829;28;20053;-66
2023/05/15 02:45:23;;;;;;;6.82;2.72;;;;;;;;;;5024728;28;20052;-66
2023/05/15 02:47:51;;;;;;;8.65;2.90;;;;;;;;;;5027460;28;20056;-66
2023/05/15 02:50:18;;;;;;;5.63;2.90;;;;;;;;;;5025741;28;20057;-64
2023/05/15 02:52:44;;;;;;;5.88;3.03;;;;;;;;;;5025464;28;20076;-68
2023/05/15 02:55:09;;;;;;;3.83;2.90;;;;;;;;;;5028691;28;20509;-66
2023/05/15 02:57:37;;;;;;;10.80;3.70;;;;;;;;;;5030324;28;20109;-65
2023/05/15 03:00:10;;;;;;;5.20;3.05;;;;;;;;;;5026411;28;20683;-66
2023/05/15 03:02:38;;;;;;;4.68;3.22;;;;;;;;;;5029776;28;20073;-66
2023/05/15 03:05:05;;;;;;;4.88;3.20;;;;;;;;;;5028832;28;20456;-65
2023/05/15 03:07:31;;;;;;;3.97;2.80;;;;;;;;;;5067680;28;20048;-64
2023/05/15 03:09:57;;;;;;;6.70;3.05;;;;;;;;;;5072120;28;20052;-66
2023/05/15 03:12:23;;;;;;;8.50;3.50;;;;;;;;;;5067098;28;20071;-67
2023/05/15 03:14:50;;;;;;;10.75;2.95;;;;;;;;;;5062594;28;20343;-65
2023/05/15 03:17:17;;;;;;;3.55;2.75;;;;;;;;;;5068173;28;20203;-65
2023/05/15 03:19:44;;;;;;;5.82;2.97;;;;;;;;;;5065005;28;20044;-67
2023/05/15 03:22:10;;;;;;;4.15;2.80;;;;;;;;;;5070707;28;20052;-65
2023/05/15 03:24:37;;;;;;;6.95;3.38;;;;;;;;;;5070143;28;20502;-66
2023/05/15 03:27:04;;;;;;;4.55;3.00;;;;;;;;;;5067655;28;22660;-66
2023/05/15 03:29:30;;;;;;;7.03;3.25;;;;;;;;;;5065694;28;20052;-65
2023/05/15 03:31:57;;;;;;;5.50;3.33;;;;;;;;;;5067912;28;20064;-65
2023/05/15 03:34:23;;;;;;;3.63;2.97;;;;;;;;;;5067057;28;20056;-64
2023/05/15 03:36:49;;;;;;;11.30;3.50;;;;;;;;;;5066835;28;20047;-65
2023/05/15 03:39:16;;;;;;;6.93;3.10;;;;;;;;;;5067174;28;20055;-65
2023/05/15 03:41:43;;;;;;;8.65;3.28;;;;;;;;;;5066756;28;20044;-64
2023/05/15 03:44:09;;;;;;;5.57;2.80;;;;;;;;;;5067121;28;20055;-67
2023/05/15 03:46:35;;;;;;;7.03;3.30;;;;;;;;;;5064367;28;20060;-66
2023/05/15 03:49:01;;;;;;;5.13;3.20;;;;;;;;;;5066353;28;20082;-65
2023/05/15 03:51:27;;;;;;;3.75;2.72;;;;;;;;;;5062021;28;20519;-65
2023/05/15 03:53:53;;;;;;;5.60;3.10;;;;;;;;;;5063580;28;20051;-65
2023/05/15 03:56:20;;;;;;;7.03;3.03;;;;;;;;;;5065875;28;20052;-65
2023/05/15 03:58:45;;;;;;;7.10;3.30;;;;;;;;;;5068326;28;20136;-65
2023/05/15 04:01:12;;;;;;;7.35;3.05;;;;;;;;;;5045738;28;20056;-66
2023/05/15 04:03:38;;;;;;;7.07;3.03;;;;;;;;;;5065407;28;20764;-69
2023/05/15 04:06:04;;;;;;;5.25;3.10;;;;;;;;;;5062520;28;20171;-65
2023/05/15 04:08:30;;;;;;;4.25;3.30;;;;;;;;;;5063953;28;20050;-65
2023/05/15 04:10:56;;;;;;;5.38;3.30;;;;;;;;;;5066949;28;20466;-65
2023/05/15 04:13:24;;;;;;;7.13;3.78;;;;;;;;;;5046350;28;20052;-65
2023/05/15 04:15:50;;;;;;;7.90;3.30;;;;;;;;;;5046403;28;20051;-65
2023/05/15 04:18:16;;;;;;;7.70;3.55;;;;;;;;;;5064121;28;20056;-68
2023/05/15 04:20:42;;;;;;;6.70;3.67;;;;;;;;;;5060976;28;20492;-65
2023/05/15 04:23:08;;;;;;;5.97;3.42;;;;;;;;;;5062722;28;20101;-66
2023/05/15 04:25:35;;;;;;;7.38;3.70;;;;;;;;;;5064314;28;20477;-66
2023/05/15 04:28:01;;;;;;;8.68;4.05;;;;;;;;;;5068384;28;20075;-66
2023/05/15 04:30:28;;;;;;;5.70;3.63;;;;;;;;;;5051242;28;20052;-67
2023/05/15 04:32:54;;;;;;;6.38;3.80;;;;;;;;;;5068386;28;20102;-66
2023/05/15 04:35:20;;;;;;;7.72;3.83;;;;;;;;;;5070765;28;20052;-67
2023/05/15 04:37:46;;;;;;;9.60;4.18;;;;;;;;;;5070480;28;20506;-66
2023/05/15 04:40:15;;;;;;;5.80;3.60;;;;;;;;;;5064294;28;20047;-67
2023/05/15 04:42:40;;;;;;;6.35;3.90;;;;;;;;;;5048543;28;20591;-66
2023/05/15 04:45:08;;;;;;;5.85;3.90;;;;;;;;;;5066161;28;20052;-66
2023/05/15 04:47:35;;;;;;;7.00;4.18;;;;;;;;;;5064018;28;22083;-66
2023/05/15 04:50:01;;;;;;;7.25;3.83;;;;;;;;;;5065158;28;20422;-67
2023/05/15 04:52:27;;;;;;;5.75;4.13;;;;;;;;;;5063230;28;20048;-69
2023/05/15 04:54:54;;;;;;;8.60;4.30;;;;;;;;;;5064404;28;20309;-67
2023/05/15 04:57:20;;;;;;;9.18;4.00;;;;;;;;;;5062507;28;20051;-66
2023/05/15 04:59:46;;;;;;;9.70;3.78;;;;;;;;;;5062797;28;22106;-66
2023/05/15 05:02:12;;;;;;;7.18;4.03;;;;;;;;;;5065392;28;20048;-66
2023/05/15 05:04:41;;;;;;;6.40;3.90;;;;;;;;;;5065781;28;20066;-66
2023/05/15 05:07:07;;;;;;;6.68;4.03;;;;;;;;;;5065560;28;20063;-67
2023/05/15 05:09:34;;;;;;;7.65;4.15;;;;;;;;;;5069443;28;20551;-66
2023/05/15 05:12:01;;;;;;;7.72;4.00;;;;;;;;;;5064381;28;20047;-67
2023/05/15 05:14:27;;;;;;;8.30;3.92;;;;;;;;;;5065180;28;20578;-70
2023/05/15 05:16:53;;;;;;;8.25;3.85;;;;;;;;;;5043538;28;20056;-65
2023/05/15 05:19:21;;;;;;;13.43;4.20;;;;;;;;;;5063132;28;20044;-64
2023/05/15 05:21:47;;;;;;;8.13;4.15;;;;;;;;;;5047166;28;20484;-65
2023/05/15 05:24:14;;;;;;;9.75;4.18;;;;;;;;;;5062503;28;20519;-66
2023/05/15 05:26:43;;;;;;;9.18;3.72;;;;;;;;;;5067485;28;20561;-66
2023/05/15 05:29:09;;;;;;;7.68;3.92;;;;;;;;;;5065064;28;20056;-65
2023/05/15 05:31:36;;;;;;;9.68;3.78;;;;;;;;;;5068407;28;20667;-67
2023/05/15 05:34:02;;;;;;;14.40;3.83;;;;;;;;;;5068604;28;20468;-65
2023/05/15 05:36:29;;;;;;;6.13;3.53;;;;;;;;;;5064127;28;20079;-67
2023/05/15 05:38:58;;;;;;;8.13;4.03;;;;;;;;;;5062774;28;20052;-66
2023/05/15 05:41:23;;;;;;;9.07;4.20;;;;;;;;;;5065750;28;20052;-66
2023/05/15 05:43:49;;;;;;;9.05;3.45;;;;;;;;;;5059306;28;20060;-64
2023/05/15 05:46:15;;;;;;;11.30;3.88;;;;;;;;;;5064481;28;20422;-64
2023/05/15 05:48:41;;;;;;;15.55;3.75;;;;;;;;;;5058755;28;20056;-62
2023/05/15 05:51:07;;;;;;;8.05;3.30;;;;;;;;;;5062784;28;20055;-65
2023/05/15 05:53:33;;;;;;;11.43;4.03;;;;;;;;;;5061548;28;20052;-65
2023/05/15 05:55:59;;;;;;;13.50;3.50;;;;;;;;;;5063299;28;20056;-64
2023/05/15 05:58:26;;;;;;;8.95;3.50;;;;;;;;;;5061113;28;20071;-64
2023/05/15 06:00:53;;;;;;;7.55;3.17;;;;;;;;;;5044384;28;20618;-67
2023/05/15 06:03:21;;;;;;;9.05;3.30;;;;;;;;;;5060713;28;20500;-65
2023/05/15 06:05:50;;;;;;;6.57;3.58;;;;;;;;;;5067787;28;20543;-66
2023/05/15 06:08:16;;;;;;;8.90;3.20;;;;;;;;;;5068093;28;20122;-65
2023/05/15 06:10:42;;;;;;;10.60;3.42;;;;;;;;;;5073225;28;20408;-65
2023/05/15 06:13:08;;;;;;;9.38;3.55;;;;;;;;;;5059543;28;20051;-65
2023/05/15 06:15:34;;;;;;;9.45;3.72;;;;;;;;;;5061437;28;20048;-65
2023/05/15 06:18:01;;;;;;;7.78;3.03;;;;;;;;;;5063868;28;20052;-64
2023/05/15 06:20:29;;;;;;;10.18;4.00;;;;;;;;;;5034414;28;20055;-64
2023/05/15 06:22:57;;;;;;;6.65;3.42;;;;;;;;;;5069408;28;20055;-64
2023/05/15 06:25:23;;;;;;;16.40;4.40;;;;;;;;;;5067791;28;20120;-64
2023/05/15 06:27:49;;;;;;;13.30;3.28;;;;;;;;;;5050149;28;20066;-64
2023/05/15 06:30:15;;;;;;;8.98;3.70;;;;;;;;;;5067504;28;20048;-67
2023/05/15 06:32:41;;;;;;;11.90;3.65;;;;;;;;;;5066487;28;20075;-65
2023/05/15 06:35:08;;;;;;;7.45;3.45;;;;;;;;;;5044281;28;20423;-66
2023/05/15 06:37:35;;;;;;;8.07;3.10;;;;;;;;;;5089043;28;20086;-67
2023/05/15 06:40:04;;;;;;;8.55;3.55;;;;;;;;;;5085839;28;20083;-67
2023/05/15 06:42:31;;;;;;;8.75;3.55;;;;;;;;;;5077566;28;20907;-67
2023/05/15 06:44:57;;;;;;;10.70;3.55;;;;;;;;;;5085881;28;20071;-65
2023/05/15 06:47:23;;;;;;;10.60;3.75;;;;;;;;;;5072798;28;20266;-68
2023/05/15 06:49:49;;;;;;;20.25;4.18;;;;;;;;;;5078912;28;20128;-63
2023/05/15 06:52:15;;;;;;;10.48;4.03;;;;;;;;;;5067950;28;20070;-64
2023/05/15 06:54:42;;;;;;;8.80;4.25;;;;;;;;;;5048425;28;20046;-64
2023/05/15 06:57:09;;;;;;;11.25;4.40;;;;;;;;;;5062971;28;20117;-64
2023/05/15 06:59:35;;;;;;;11.07;4.57;;;;;;;;;;5065706;28;21429;-65
2023/05/15 07:02:04;;;;;;;16.38;4.28;;;;;;;;;;5068033;28;20109;-65
2023/05/15 07:04:30;;;;;;;11.65;4.30;;;;;;;;;;5069856;28;20470;-65
2023/05/15 07:06:58;;;;;;;10.20;4.00;;;;;;;;;;5066781;28;20063;-64
2023/05/15 07:09:24;;;;;;;14.65;4.18;;;;;;;;;;5067136;28;20051;-66
2023/05/15 07:11:51;;;;;;;16.63;3.80;;;;;;;;;;5064859;28;20212;-65
2023/05/15 07:14:17;;;;;;;14.13;4.32;;;;;;;;;;5067789;28;20075;-64
2023/05/15 07:16:46;;;;;;;12.90;4.63;;;;;;;;;;5068741;28;20057;-65
2023/05/15 07:19:16;;;;;;;10.23;4.15;;;;;;;;;;5065497;28;20129;-64
2023/05/15 07:21:45;;;;;;;10.35;4.00;;;;;;;;;;5062004;28;20052;-64
2023/05/15 07:24:10;;;;;;;10.73;3.67;;;;;;;;;;5066508;28;20107;-65
2023/05/15 07:26:37;;;;;;;12.07;4.15;;;;;;;;;;5045286;28;20048;-65
2023/05/15 07:29:05;;;;;;;13.15;3.75;;;;;;;;;;5066499;28;20487;-63
2023/05/15 07:31:35;;;;;;;12.10;3.78;;;;;;;;;;5063507;28;20056;-64
2023/05/15 07:34:00;;;;;;;7.78;3.03;;;;;;;;;;5061706;28;20461;-64
2023/05/15 07:37:15;;;;;;;17.92;4.82;;;;;;;;;;5064652;28;20040;-71
2023/05/15 07:40:57;;;;;;;9.73;3.28;;;;;;;;;;5063418;28;20130;-71
2023/05/15 07:44:37;;;;;;;5.68;2.85;;;;;;;;;;5064787;28;20056;-64
2023/05/15 07:48:17;;;;;;;6.30;2.90;;;;;;;;;;5066780;28;20142;-64
2023/05/15 07:51:59;;;;;;;9.02;2.90;;;;;;;;;;5064106;28;20040;-63
2023/05/15 07:55:40;;;;;;;6.95;2.92;;;;;;;;;;5061062;28;20058;-63
2023/05/15 07:59:23;;;;;;;9.00;3.33;;;;;;;;;;5058529;28;20059;-64
2023/05/15 08:03:04;;;;;;;8.98;2.65;;;;;;;;;;5067161;28;20504;-64
2023/05/15 08:06:45;;;;;;;4.18;2.40;;;;;;;;;;5064218;28;20181;-63
2023/05/15 08:10:25;;;;;;;8.60;2.55;;;;;;;;;;5064854;28;20055;-63
2023/05/15 08:14:05;;;;;;;2.67;2.00;;;;;;;;;;5064266;28;20582;-66
2023/05/15 08:17:46;;;;;;;5.65;2.20;;;;;;;;;;5066491;28;20048;-63
2023/05/15 08:21:26;;;;;;;8.05;2.25;;;;;;;;;;5062326;28;20688;-68
2023/05/15 08:25:07;;;;;;;5.95;2.33;;;;;;;;;;5071994;28;20063;-65
2023/05/15 08:28:47;;;;;;;4.22;2.10;;;;;;;;;;5069513;28;20067;-63
2023/05/15 08:32:27;;;;;;;7.55;2.40;;;;;;;;;;5065959;28;20328;-65
2023/05/15 08:36:07;;;;;;;5.05;2.15;;;;;;;;;;5062857;28;20052;-65
2023/05/15 08:39:48;;;;;;;6.90;2.10;;;;;;;;;;5062600;28;20097;-64
2023/05/15 08:43:31;;;;;;;10.15;2.28;;;;;;;;;;5066088;28;20127;-63
2023/05/15 08:47:11;;;;;;;4.32;2.08;;;;;;;;;;5064895;28;20040;-66
2023/05/15 08:50:53;;;;;;;6.13;2.53;;;;;;;;;;5059428;28;20051;-64
2023/05/15 08:54:33;;;;;;;5.97;2.47;;;;;;;;;;5064957;28;20062;-63
2023/05/15 08:58:15;;;;;;;5.28;2.10;;;;;;;;;;5066319;28;20048;-65
2023/05/15 09:01:54;;;;;;;4.72;2.00;;;;;;;;;;5064767;28;20043;-65
2023/05/15 09:05:36;;;;;;;3.20;1.98;;;;;;;;;;5070280;28;20044;-63
2023/05/15 09:09:16;;;;;;;4.38;1.98;;;;;;;;;;5087353;28;20489;-65
2023/05/15 09:12:56;;;;;;;4.07;2.00;;;;;;;;;;5080439;28;20399;-64
2023/05/15 09:16:37;;;;;;;3.92;1.98;;;;;;;;;;5080102;28;20141;-66
2023/05/15 09:20:17;;;;;;;3.75;1.83;;;;;;;;;;5083580;28;20506;-66
2023/05/15 09:24:00;;;;;;;3.63;1.80;;;;;;;;;;5078112;28;20059;-66
2023/05/15 09:27:42;;;;;;;2.70;1.67;;;;;;;;;;5085801;28;20203;-67
2023/05/15 09:31:22;;;;;;;5.15;1.92;;;;;;;;;;5077691;28;20055;-64
2023/05/15 09:35:09;;;;;;;3.13;1.88;;;;;;;;;;5072994;28;20925;-65
2023/05/15 09:38:49;;;;;;;7.70;2.20;;;;;;;;;;5078660;28;20502;-65
2023/05/15 09:42:30;;;;;;;4.00;2.03;;;;;;;;;;5076107;28;20127;-68
2023/05/15 09:46:14;;;;;;;2.58;1.90;;;;;;;;;;5077084;28;20043;-63
2023/05/15 09:49:51;;;;;;;5.18;1.80;;;;;;;;;;5069984;28;20312;-64
2023/05/15 09:53:31;;;;;;;5.15;1.92;;;;;;;;;;5073068;28;20094;-65
2023/05/15 09:57:13;;;;;;;4.55;1.70;;;;;;;;;;5078159;28;20052;-65
2023/05/15 10:00:55;;;;;;;4.10;1.80;;;;;;;;;;5082159;28;20056;-65
2023/05/15 10:04:38;;;;;;;5.00;1.70;;;;;;;;;;5080740;28;20039;-64
2023/05/15 10:08:20;;;;;;;2.58;1.80;;;;;;;;;;5079636;28;20052;-65
2023/05/15 10:12:00;;;;;;;6.57;2.10;;;;;;;;;;5069189;28;20742;-64
2023/05/15 10:15:43;;;;;;;2.63;1.55;;;;;;;;;;5080903;28;20052;-66
2023/05/15 10:19:23;;;;;;;4.07;1.92;;;;;;;;;;5076484;28;20047;-64
2023/05/15 10:23:04;;;;;;;3.50;1.90;;;;;;;;;;5080166;28;20366;-69
2023/05/15 10:26:56;;;;;;;5.13;2.05;;;;;;;;;;5080171;28;20442;-64
2023/05/15 10:30:36;;;;;;;7.82;2.35;;;;;;;;;;5077508;28;20775;-64
2023/05/15 10:34:16;;;;;;;5.97;2.40;;;;;;;;;;5085495;28;20429;-67
2023/05/15 10:38:00;;;;;;;6.75;2.60;;;;;;;;;;5068621;28;20322;-65
2023/05/15 10:41:40;;;;;;;5.30;2.45;;;;;;;;;;5084080;28;20101;-63
2023/05/15 10:45:20;;;;;;;9.25;2.85;;;;;;;;;;5076469;28;20051;-63
2023/05/15 10:49:01;;;;;;;7.20;3.05;;;;;;;;;;5076345;28;20268;-65
2023/05/15 10:52:41;;;;;;;9.48;2.55;;;;;;;;;;5077370;28;20130;-64
2023/05/15 10:56:22;;;;;;;3.47;2.05;;;;;;;;;;5086183;28;20092;-64
2023/05/15 11:00:10;;;;;;;6.25;2.30;;;;;;;;;;5081775;28;20039;-64
2023/05/15 11:03:56;;;;;;;6.15;2.40;;;;;;;;;;5085294;28;20059;-64
2023/05/15 11:07:37;;;;;;;5.70;2.35;;;;;;;;;;5076451;28;20059;-64
2023/05/15 11:11:18;;;;;;;9.60;2.50;;;;;;;;;;5076348;28;20483;-65
2023/05/15 11:14:58;;;;;;;5.47;2.42;;;;;;;;;;5079502;28;20083;-65
2023/05/15 11:18:42;;;;;;;6.18;2.83;;;;;;;;;;5073715;28;20475;-63
2023/05/15 11:22:09;;;;;;;8.02;2.78;;;;;;;;;;5082669;28;20123;-64
2023/05/15 11:25:49;;;;;;;11.82;2.72;;;;;;;;;;5073267;28;20082;-66
2023/05/15 11:29:36;;;;;;;5.95;2.53;;;;;;;;;;5074915;28;20032;-63
2023/05/15 11:32:39;;;;;;;;;;;;;;;;;;5079302;28;20101;-64
2023/05/15 11:36:19;;;;;;;8.90;2.53;;;;;;;;;;5078072;28;19920;-65
2023/05/15 11:40:00;;;;;;;11.77;2.53;;;;;;;;;;5066880;28;20496;-63
2023/05/15 11:43:20;;;;;;;8.15;2.40;;;;;;;;;;5072661;28;20052;-66
2023/05/15 11:47:01;;;;;;;6.00;2.47;;;;;;;;;;5074731;28;20480;-65
2023/05/15 11:50:41;;;;;;;3.45;2.17;;;;;;;;;;5081430;28;20048;-63
2023/05/15 11:54:21;;;;;;;6.30;2.35;;;;;;;;;;5072796;28;20048;-64
2023/05/15 11:58:03;;;;;;;7.03;2.50;;;;;;;;;;5075272;28;20044;-64
2023/05/15 12:01:42;;;;;;;12.52;1.90;;;;;;;;;;5069518;28;20874;-64
2023/05/15 12:05:22;;;;;;;8.18;2.90;;;;;;;;;;5078461;28;20105;-63
2023/05/15 12:09:03;;;;;;;5.43;2.47;;;;;;;;;;5078553;28;20056;-63
2023/05/15 12:12:47;;;;;;;4.68;2.00;;;;;;;;;;5080078;28;20062;-65
2023/05/15 12:16:28;;;;;;;4.85;1.88;;;;;;;;;;5073262;28;20048;-63
2023/05/15 12:20:09;;;;;;;3.30;2.17;;;;;;;;;;5081882;28;20124;-67
2023/05/15 12:23:50;;;;;;;4.40;1.98;;;;;;;;;;5079517;28;20054;-64
2023/05/15 12:27:32;;;;;;;5.50;2.15;;;;;;;;;;5078612;28;20058;-64
2023/05/15 12:31:13;;;;;;;9.82;2.22;;;;;;;;;;5083386;28;20051;-64
2023/05/15 12:34:53;;;;;;;4.95;2.20;;;;;;;;;;5075379;28;20055;-63
2023/05/15 12:38:34;;;;;;;9.25;1.80;;;;;;;;;;5084720;28;20458;-64
2023/05/15 12:42:14;;;;;;;3.65;1.98;;;;;;;;;;5077576;28;20037;-69
2023/05/15 12:45:54;;;;;;;5.55;1.90;;;;;;;;;;5074973;28;20047;-65
2023/05/15 12:49:40;;;;;;;9.38;2.75;;;;;;;;;;5079192;28;20052;-66
2023/05/15 12:53:21;;;;;;;3.55;2.05;;;;;;;;;;5068319;28;20357;-66
2023/05/15 12:57:01;;;;;;;3.90;2.00;;;;;;;;;;5077891;28;20051;-67
2023/05/15 13:00:44;;;;;;;7.38;2.88;;;;;;;;;;5082039;28;20390;-67
2023/05/15 13:04:24;;;;;;;4.25;1.70;;;;;;;;;;5084286;28;20483;-65
2023/05/15 13:08:06;;;;;;;6.22;1.80;;;;;;;;;;5077199;28;20044;-66
2023/05/15 13:11:46;;;;;;;7.22;2.35;;;;;;;;;;5067543;28;20074;-64
2023/05/15 13:15:27;;;;;;;10.13;2.20;;;;;;;;;;5074168;28;20124;-66
2023/05/15 13:19:08;;;;;;;5.70;1.90;;;;;;;;;;5082856;28;20050;-64
2023/05/15 13:22:47;;;;;;;8.30;1.90;;;;;;;;;;5081650;28;20070;-66
2023/05/15 13:26:28;;;;;;;15.63;2.88;;;;;;;;;;5073747;28;20404;-63
2023/05/15 13:30:09;;;;;;;6.38;1.90;;;;;;;;;;5073471;28;20074;-65
2023/05/15 13:33:49;;;;;;;3.88;1.85;;;;;;;;;;5082719;28;20079;-65
2023/05/15 13:37:30;;;;;;;5.35;2.10;;;;;;;;;;5072577;28;20127;-69
2023/05/15 13:41:11;;;;;;;4.35;1.80;;;;;;;;;;5076356;28;20055;-68
2023/05/15 13:44:51;;;;;;;7.68;2.10;;;;;;;;;;5071982;28;20326;-68
2023/05/15 13:48:32;;;;;;;9.15;2.42;;;;;;;;;;5079514;28;20036;-68
2023/05/15 13:52:12;;;;;;;6.07;2.00;;;;;;;;;;5077981;28;20109;-65
2023/05/15 13:55:52;;;;;;;7.57;2.30;;;;;;;;;;5070146;28;20041;-66
2023/05/15 13:59:34;;;;;;;5.72;1.95;;;;;;;;;;5075987;28;20124;-64
2023/05/15 14:03:15;;;;;;;12.30;2.17;;;;;;;;;;5073910;28;20039;-65
2023/05/15 14:06:56;;;;;;;5.53;1.88;;;;;;;;;;5081992;28;20095;-69
2023/05/15 14:10:36;;;;;;;5.15;2.33;;;;;;;;;;5070165;28;20298;-68
2023/05/15 14:14:17;;;;;;;3.83;2.05;;;;;;;;;;5075754;28;20047;-64
2023/05/15 14:17:58;;;;;;;6.03;2.17;;;;;;;;;;5082737;28;20127;-67
2023/05/15 14:21:38;;;;;;;6.63;2.28;;;;;;;;;;5081640;28;20335;-67
2023/05/15 14:25:18;;;;;;;7.97;2.25;;;;;;;;;;5075375;28;20048;-66
2023/05/15 14:28:59;;;;;;;13.88;2.55;;;;;;;;;;5076375;28;20044;-67
2023/05/15 14:32:40;;;;;;;6.70;2.10;;;;;;;;;;5081281;28;20066;-68
2023/05/15 14:36:21;;;;;;;7.85;2.40;;;;;;;;;;5076732;28;20039;-65
2023/05/15 14:40:03;;;;;;;9.60;2.47;;;;;;;;;;5083832;28;20136;-66
2023/05/15 14:43:43;;;;;;;7.50;2.42;;;;;;;;;;5082364;28;20047;-65
2023/05/15 14:47:27;;;;;;;7.10;2.40;;;;;;;;;;5085580;28;20043;-66
2023/05/15 14:51:07;;;;;;;7.95;2.42;;;;;;;;;;5080045;28;20102;-64
2023/05/15 14:54:48;;;;;;;4.72;2.25;;;;;;;;;;5071823;28;20056;-68
2023/05/15 14:58:29;;;;;;;3.03;1.92;;;;;;;;;;5083049;28;20127;-66
2023/05/15 15:02:09;;;;;;;4.65;1.65;;;;;;;;;;5077844;28;20399;-67
2023/05/15 15:05:51;;;;;;;9.43;1.98;;;;;;;;;;5078599;28;20101;-66
2023/05/15 15:09:32;;;;;;;4.97;1.80;;;;;;;;;;5041107;28;20504;-66
2023/05/15 15:13:12;;;;;;;5.63;1.92;;;;;;;;;;5039200;28;20047;-64
2023/05/15 15:16:52;;;;;;;2.95;1.60;;;;;;;;;;5041242;28;20404;-72
2023/05/15 15:20:34;;;;;;;4.45;2.03;;;;;;;;;;5041552;28;20102;-64
2023/05/15 15:24:14;;;;;;;6.30;1.98;;;;;;;;;;5045281;28;20052;-66
2023/05/15 15:27:54;;;;;;;5.72;1.92;;;;;;;;;;5041752;28;20033;-67
2023/05/15 15:31:35;;;;;;;3.92;2.03;;;;;;;;;;5047876;28;20045;-66
2023/05/15 15:35:15;;;;;;;9.48;2.72;;;;;;;;;;5035053;28;20492;-67
2023/05/15 15:38:55;;;;;;;6.45;3.03;;;;;;;;;;5042002;28;20045;-68
2023/05/15 15:42:36;;;;;;;7.38;2.22;;;;;;;;;;5037747;28;20045;-71
2023/05/15 15:46:16;;;;;;;5.63;2.50;;;;;;;;;;5044409;28;20501;-66
2023/05/15 15:49:57;;;;;;;5.88;2.25;;;;;;;;;;5038615;28;20048;-66
2023/05/15 15:53:38;;;;;;;6.88;2.40;;;;;;;;;;5032235;28;20072;-65
2023/05/15 15:57:18;;;;;;;4.63;2.17;;;;;;;;;;5037112;28;20490;-65
2023/05/15 16:00:58;;;;;;;6.90;2.35;;;;;;;;;;5023626;28;20080;-69
2023/05/15 16:04:39;;;;;;;3.03;2.10;;;;;;;;;;5034317;28;20099;-69
2023/05/15 16:08:20;;;;;;;5.38;2.00;;;;;;;;;;5030159;28;20069;-63
2023/05/15 16:12:02;;;;;;;7.22;2.58;;;;;;;;;;5028449;28;20475;-64
2023/05/15 16:15:42;;;;;;;7.47;2.55;;;;;;;;;;5031035;28;20053;-62
2023/05/15 16:19:23;;;;;;;8.73;2.47;;;;;;;;;;5029760;28;20041;-62
2023/05/15 16:23:03;;;;;;;3.92;2.22;;;;;;;;;;5030946;28;20050;-64
2023/05/15 16:26:43;;;;;;;8.85;2.35;;;;;;;;;;5030802;28;20043;-69
2023/05/15 16:30:24;;;;;;;15.05;3.30;;;;;;;;;;5037274;28;20037;-66
2023/05/15 16:34:06;;;;;;;8.32;2.60;;;;;;;;;;5037932;28;20547;-65
2023/05/15 16:37:46;;;;;;;6.88;2.28;;;;;;;;;;5046517;28;20045;-65
2023/05/15 16:41:29;;;;;;;8.23;2.40;;;;;;;;;;5035074;28;20082;-64
2023/05/15 16:45:09;;;;;;;5.30;3.03;;;;;;;;;;5038314;28;21553;-63
2023/05/15 16:48:49;;;;;;;7.35;2.50;;;;;;;;;;5043530;28;20467;-65
2023/05/15 16:52:30;;;;;;;6.22;2.67;;;;;;;;;;5039704;28;20055;-64
2023/05/15 16:56:12;;;;;;;5.47;2.38;;;;;;;;;;5033799;28;20053;-64
2023/05/15 16:59:50;;;;;;;4.32;2.15;;;;;;;;;;5033675;28;20101;-62
2023/05/15 17:03:31;;;;;;;5.57;2.38;;;;;;;;;;5041435;28;20506;-63
2023/05/15 17:07:11;;;;;;;8.05;2.25;;;;;;;;;;5056034;28;20052;-63
2023/05/15 17:10:52;;;;;;;6.63;2.30;;;;;;;;;;5080506;28;20060;-65
2023/05/15 17:14:32;;;;;;;5.72;2.80;;;;;;;;;;5071005;28;20056;-65
2023/05/15 17:18:15;;;;;;;5.18;2.20;;;;;;;;;;5075114;28;20048;-64
2023/05/15 17:21:56;;;;;;;3.92;1.90;;;;;;;;;;5074782;28;20040;-62
2023/05/15 17:25:37;;;;;;;4.72;1.90;;;;;;;;;;5083822;28;20527;-65
2023/05/15 17:29:17;;;;;;;7.38;2.20;;;;;;;;;;5078105;28;20067;-66
2023/05/15 17:32:59;;;;;;;6.65;2.28;;;;;;;;;;5075639;28;20071;-65
2023/05/15 17:36:38;;;;;;;8.48;2.33;;;;;;;;;;5075656;28;20134;-67
2023/05/15 17:40:18;;;;;;;4.75;2.42;;;;;;;;;;5073162;28;20040;-62
2023/05/15 17:43:59;;;;;;;7.55;2.50;;;;;;;;;;5068281;28;20466;-66
2023/05/15 17:47:40;;;;;;;6.47;2.35;;;;;;;;;;5071868;28;20040;-65
2023/05/15 17:51:20;;;;;;;10.00;3.00;;;;;;;;;;5073864;28;20079;-65
2023/05/15 17:55:03;;;;;;;5.90;2.83;;;;;;;;;;5076047;28;20131;-64
2023/05/15 17:58:46;;;;;;;10.25;2.85;;;;;;;;;;5078201;28;20101;-71
2023/05/15 18:02:30;;;;;;;10.20;4.03;;;;;;;;;;5071322;28;20079;-61
2023/05/15 18:06:14;;;;;;;9.18;3.10;;;;;;;;;;5078279;28;20050;-66
2023/05/15 18:09:54;;;;;;;7.55;2.40;;;;;;;;;;5069094;28;20396;-65
2023/05/15 18:13:35;;;;;;;7.05;3.30;;;;;;;;;;5078814;28;20487;-63
2023/05/15 18:17:15;;;;;;;6.07;2.40;;;;;;;;;;5078056;28;20134;-65